Time;durP1;ratioP1;P1;durP2;ratioP2;P2;SDS_P1;SDS_P2;PMS_P1;PMS_P2;Temp;Humidity;BMP_temperature;BMP_pressure;BME280_temperature;BME280_humidity;BME280_pressure;Samples;Min_cycle;Max_cycle;Signal;HPM_P1;HPM_P2
2021/07/30 00:02:12;;;;;;;12.02;5.60;;;;;;;12.57;77.73;101147.34;4994173;28;20117;-74
2021/07/30 00:04:37;;;;;;;16.25;6.53;;;;;;;12.50;78.07;101144.41;4993428;28;20027;-74
2021/07/30 00:07:03;;;;;;;19.83;6.43;;;;;;;12.43;78.33;101141.47;4993640;28;20038;-74
2021/07/30 00:09:28;;;;;;;17.25;6.38;;;;;;;12.38;78.74;101149.06;4993787;28;20041;-74
2021/07/30 00:11:53;;;;;;;13.45;6.40;;;;;;;12.33;78.74;101149.50;4993167;28;20037;-74
2021/07/30 00:14:19;;;;;;;15.07;6.28;;;;;;;12.27;78.89;101141.22;4993780;28;20038;-74
2021/07/30 00:16:44;;;;;;;19.95;6.10;;;;;;;12.24;79.22;101142.38;4993035;28;20065;-74
2021/07/30 00:19:09;;;;;;;18.92;6.43;;;;;;;12.24;79.54;101141.50;4993870;28;20034;-74
2021/07/30 00:21:35;;;;;;;22.23;7.40;;;;;;;12.21;79.53;101139.13;4993515;28;20096;-74
2021/07/30 00:24:00;;;;;;;13.45;6.25;;;;;;;12.18;79.75;101137.56;4993079;28;20081;-74
2021/07/30 00:26:25;;;;;;;11.75;5.93;;;;;;;12.14;79.85;101131.69;4993793;28;20031;-74
2021/07/30 00:28:51;;;;;;;17.10;6.65;;;;;;;12.15;79.58;101135.19;4993042;28;20463;-74
2021/07/30 00:31:16;;;;;;;17.00;5.97;;;;;;;12.19;79.00;101131.25;4993919;28;20030;-74
2021/07/30 00:33:42;;;;;;;13.80;6.07;;;;;;;12.19;79.68;101133.94;4992966;28;20030;-74
2021/07/30 00:36:07;;;;;;;21.80;6.18;;;;;;;12.19;79.15;101136.59;4975932;28;20030;-74
2021/07/30 00:38:32;;;;;;;12.85;5.63;;;;;;;12.22;79.47;101138.16;4993344;28;20038;-75
2021/07/30 00:41:00;;;;;;;15.25;5.70;;;;;;;12.24;79.15;101138.84;4992695;28;20026;-74
2021/07/30 00:43:25;;;;;;;13.07;5.75;;;;;;;12.26;78.73;101127.03;4993396;28;20427;-74
2021/07/30 00:45:53;;;;;;;16.40;5.95;;;;;;;12.32;78.56;101128.31;4992702;28;20034;-74
2021/07/30 00:48:20;;;;;;;18.23;6.20;;;;;;;12.39;78.71;101133.91;4993163;28;20463;-74
2021/07/30 00:50:46;;;;;;;12.95;5.95;;;;;;;12.42;78.73;101126.47;4992966;28;20041;-74
2021/07/30 00:53:12;;;;;;;18.38;5.28;;;;;;;12.42;78.75;101123.78;4992387;28;20399;-75
2021/07/30 00:55:38;;;;;;;11.27;4.93;;;;;;;12.40;78.07;101124.91;4993707;28;20037;-73
2021/07/30 00:58:04;;;;;;;19.20;6.40;;;;;;;12.41;78.14;101118.59;4993354;28;20044;-74
2021/07/30 01:00:30;;;;;;;17.73;5.93;;;;;;;12.41;78.22;101115.94;4993233;28;20030;-74
2021/07/30 01:02:59;;;;;;;15.77;5.15;;;;;;;12.38;78.48;101122.38;4991208;28;20041;-75
2021/07/30 01:05:24;;;;;;;18.48;5.80;;;;;;;12.38;78.54;101126.91;4993055;28;20395;-74
2021/07/30 01:07:49;;;;;;;17.33;5.68;;;;;;;12.35;78.44;101128.00;4992292;28;20042;-75
2021/07/30 01:10:15;;;;;;;21.85;5.72;;;;;;;12.32;78.30;101121.13;4993297;28;20069;-74
2021/07/30 01:12:41;;;;;;;11.40;5.10;;;;;;;12.27;78.69;101128.75;4993019;28;20026;-74
2021/07/30 01:15:06;;;;;;;17.67;5.85;;;;;;;12.26;78.85;101126.22;4992472;28;20038;-74
2021/07/30 01:17:32;;;;;;;13.38;5.10;;;;;;;12.23;78.75;101131.84;4991365;28;20042;-74
2021/07/30 01:19:57;;;;;;;13.57;5.63;;;;;;;12.15;79.55;101120.03;4991271;28;20076;-74
2021/07/30 01:22:27;;;;;;;15.65;5.65;;;;;;;12.10;79.13;101121.44;4992800;28;20493;-74
2021/07/30 01:24:53;;;;;;;14.77;5.47;;;;;;;12.08;79.42;101120.75;4992640;28;20423;-74
2021/07/30 01:27:21;;;;;;;16.45;5.40;;;;;;;12.07;79.30;101119.06;4992696;28;20113;-74
2021/07/30 01:29:47;;;;;;;21.48;5.82;;;;;;;12.04;79.39;101120.19;4992390;28;20034;-75
2021/07/30 01:32:13;;;;;;;10.13;5.35;;;;;;;12.01;79.56;101117.81;4992628;28;20501;-74
2021/07/30 01:34:39;;;;;;;20.45;5.65;;;;;;;11.97;79.71;101119.94;4992658;28;20070;-74
2021/07/30 01:37:04;;;;;;;16.30;5.63;;;;;;;11.97;79.91;101113.72;4992056;28;20084;-75
2021/07/30 01:39:30;;;;;;;12.85;5.28;;;;;;;11.98;79.77;101113.59;4992514;28;20033;-74
2021/07/30 01:41:55;;;;;;;16.48;5.82;;;;;;;12.02;80.24;101114.16;4990954;28;20459;-74
2021/07/30 01:44:20;;;;;;;13.38;5.60;;;;;;;12.02;79.62;101106.16;4992659;28;20529;-74
2021/07/30 01:46:47;;;;;;;19.27;6.22;;;;;;;12.05;80.13;101111.22;4992563;28;20446;-74
2021/07/30 01:49:12;;;;;;;14.13;5.38;;;;;;;12.09;80.10;101112.63;4990633;28;20096;-74
2021/07/30 01:51:38;;;;;;;16.85;5.55;;;;;;;12.09;79.91;101109.09;4992405;28;20038;-74
2021/07/30 01:54:04;;;;;;;14.57;5.30;;;;;;;12.09;79.68;101115.28;4991833;28;20031;-74
2021/07/30 01:56:30;;;;;;;13.48;5.32;;;;;;;12.09;80.31;101111.75;4992760;28;20104;-74
2021/07/30 01:58:55;;;;;;;14.57;5.38;;;;;;;12.12;79.85;101116.81;4992023;28;20491;-75
2021/07/30 02:01:20;;;;;;;11.20;5.05;;;;;;;12.07;80.43;101111.91;4992439;28;20057;-74
2021/07/30 02:03:46;;;;;;;13.02;5.60;;;;;;;12.03;80.70;101115.00;4991213;28;20474;-74
2021/07/30 02:06:11;;;;;;;15.70;5.30;;;;;;;11.97;80.87;101111.06;4991639;28;20030;-74
2021/07/30 02:08:36;;;;;;;16.23;5.40;;;;;;;11.93;80.55;101112.34;4992221;28;20037;-74
2021/07/30 02:11:12;;;;;;;14.65;5.10;;;;;;;11.93;80.94;101109.69;4991725;28;20065;-74
2021/07/30 02:16:23;;;;;;;17.05;6.03;;;;;;;11.93;81.18;101096.34;4992611;28;20053;-74
2021/07/30 02:18:49;;;;;;;21.98;6.35;;;;;;;11.92;81.03;101097.28;4992061;28;20026;-73
2021/07/30 02:21:15;;;;;;;17.33;5.78;;;;;;;11.89;81.24;101094.91;4991716;28;20046;-74
2021/07/30 02:23:40;;;;;;;19.55;6.25;;;;;;;11.89;81.30;101094.91;4992273;28;20045;-73
2021/07/30 02:26:06;;;;;;;15.02;5.63;;;;;;;11.86;80.89;101090.69;4990575;28;20038;-74
2021/07/30 02:28:31;;;;;;;17.25;5.60;;;;;;;11.82;81.74;101091.97;4992200;28;20038;-74
2021/07/30 02:30:56;;;;;;;15.15;6.03;;;;;;;11.78;81.96;101090.56;4994263;28;20037;-74
2021/07/30 02:33:22;;;;;;;13.45;5.40;;;;;;;11.78;82.16;101085.25;4995723;28;20034;-74
2021/07/30 02:35:47;;;;;;;18.17;6.22;;;;;;;11.77;82.23;101083.56;4995542;28;20061;-74
2021/07/30 02:38:12;;;;;;;15.05;5.65;;;;;;;11.76;82.16;101077.38;4995212;28;20106;-74
2021/07/30 02:40:38;;;;;;;16.45;6.03;;;;;;;11.77;82.38;101083.56;4995692;28;20081;-73
2021/07/30 02:43:03;;;;;;;20.20;5.85;;;;;;;11.79;82.29;101086.91;4994820;28;20034;-74
2021/07/30 02:45:29;;;;;;;12.68;5.60;;;;;;;11.80;82.33;101083.28;4995621;28;20042;-74
2021/07/30 02:47:54;;;;;;;19.92;6.28;;;;;;;11.80;82.31;101083.28;4995413;28;20061;-74
2021/07/30 02:50:19;;;;;;;20.25;6.78;;;;;;;11.79;82.90;101082.44;4994898;28;20073;-74
2021/07/30 02:52:45;;;;;;;14.88;5.47;;;;;;;11.78;82.56;101077.25;4995530;28;20553;-74
2021/07/30 02:55:10;;;;;;;14.15;5.60;;;;;;;11.76;82.80;101082.72;4994749;28;20042;-74
2021/07/30 02:57:36;;;;;;;21.13;6.15;;;;;;;11.75;82.76;101078.38;4995413;28;20057;-74
2021/07/30 03:00:02;;;;;;;23.95;6.30;;;;;;;11.73;82.83;101074.16;4994469;28;20485;-74
2021/07/30 03:02:27;;;;;;;20.83;6.65;;;;;;;11.71;83.43;101073.47;4995290;28;20034;-74
2021/07/30 03:04:53;;;;;;;17.77;5.80;;;;;;;11.70;83.40;101069.94;4995061;28;20034;-74
2021/07/30 03:07:18;;;;;;;16.73;6.43;;;;;;;11.72;83.00;101067.97;4993329;28;20038;-74
2021/07/30 03:09:43;;;;;;;17.27;6.03;;;;;;;11.76;83.07;101072.06;4995262;28;20034;-74
2021/07/30 03:12:09;;;;;;;18.73;6.32;;;;;;;11.79;83.00;101069.09;4994555;28;20030;-74
2021/07/30 03:14:34;;;;;;;22.38;6.53;;;;;;;11.82;82.78;101063.50;4995016;28;20041;-74
2021/07/30 03:16:59;;;;;;;20.02;6.22;;;;;;;11.85;83.02;101069.50;4994563;28;20038;-74
2021/07/30 03:19:25;;;;;;;17.45;6.75;;;;;;;11.90;83.07;101060.13;4995149;28;20065;-74
2021/07/30 03:21:50;;;;;;;20.92;6.40;;;;;;;11.98;82.80;101057.59;4995136;28;20062;-74
2021/07/30 03:24:15;;;;;;;13.93;5.70;;;;;;;12.02;82.43;101055.50;4994435;28;20030;-74
2021/07/30 03:26:41;;;;;;;20.73;6.60;;;;;;;12.07;82.15;101052.41;4994931;28;20497;-74
2021/07/30 03:29:06;;;;;;;19.60;5.72;;;;;;;12.05;82.22;101054.38;4994128;28;20027;-74
2021/07/30 03:31:32;;;;;;;24.15;6.03;;;;;;;12.02;82.63;101052.81;4994808;28;20118;-74
2021/07/30 03:33:57;;;;;;;14.55;6.15;;;;;;;11.99;82.66;101051.28;4994582;28;20033;-74
2021/07/30 03:36:23;;;;;;;22.52;6.93;;;;;;;12.02;83.11;101057.31;4993999;28;20453;-74
2021/07/30 03:38:48;;;;;;;15.95;6.20;;;;;;;12.01;83.01;101055.63;4995385;28;20042;-74
2021/07/30 03:41:14;;;;;;;16.90;6.40;;;;;;;12.03;83.62;101061.66;4993497;28;20507;-74
2021/07/30 03:43:39;;;;;;;17.48;6.40;;;;;;;12.04;83.44;101055.34;4994565;28;20030;-74
2021/07/30 03:46:04;;;;;;;20.58;6.80;;;;;;;12.07;83.00;101050.56;4993841;28;20045;-74
2021/07/30 03:48:31;;;;;;;20.83;6.35;;;;;;;12.13;82.85;101063.31;4994812;28;20038;-74
2021/07/30 03:50:57;;;;;;;18.52;6.07;;;;;;;12.21;82.46;101059.09;4994743;28;20141;-74
2021/07/30 03:53:22;;;;;;;22.33;6.88;;;;;;;12.27;82.77;101054.03;4993701;28;20506;-73
2021/07/30 03:55:47;;;;;;;20.98;6.78;;;;;;;12.33;82.16;101068.59;4992974;28;20038;-74
2021/07/30 03:58:13;;;;;;;21.52;6.68;;;;;;;12.39;82.51;101065.38;4994037;28;20077;-74
2021/07/30 04:00:38;;;;;;;19.70;7.13;;;;;;;12.46;82.38;101070.97;4994137;28;20031;-74
2021/07/30 04:03:04;;;;;;;17.98;6.75;;;;;;;12.53;82.16;101070.22;4994035;28;20061;-74
2021/07/30 04:05:29;;;;;;;19.60;6.38;;;;;;;12.62;81.37;101059.66;4993429;28;20117;-74
2021/07/30 04:07:56;;;;;;;18.13;6.32;;;;;;;12.68;81.22;101045.72;4994127;28;20030;-73
2021/07/30 04:10:21;;;;;;;21.13;7.72;;;;;;;12.72;81.10;101049.78;4993361;28;20379;-74
2021/07/30 04:12:47;;;;;;;23.38;7.15;;;;;;;12.76;80.97;101043.16;4993895;28;20032;-73
2021/07/30 04:15:12;;;;;;;16.83;6.18;;;;;;;12.79;81.19;101032.16;4993097;28;20041;-74
2021/07/30 04:17:37;;;;;;;24.40;7.10;;;;;;;12.84;80.89;101042.44;4992843;28;20038;-73
2021/07/30 04:20:03;;;;;;;19.15;6.68;;;;;;;12.85;80.61;101028.06;4992737;28;20081;-74
2021/07/30 04:22:28;;;;;;;18.58;6.70;;;;;;;12.86;81.13;101033.25;4993342;28;20077;-74
2021/07/30 04:24:54;;;;;;;16.63;6.53;;;;;;;12.91;80.89;101024.78;4993947;28;20034;-73
2021/07/30 04:27:19;;;;;;;15.77;6.07;;;;;;;12.94;80.65;101029.00;4993082;28;20089;-74
2021/07/30 04:29:45;;;;;;;20.85;6.78;;;;;;;12.97;80.95;101021.53;4993520;28;20065;-73
2021/07/30 04:32:11;;;;;;;14.93;6.40;;;;;;;13.00;80.60;101029.25;4993069;28;20031;-74
2021/07/30 04:34:38;;;;;;;24.40;7.28;;;;;;;13.05;80.54;101031.47;4994100;28;20038;-73
2021/07/30 04:37:04;;;;;;;13.27;6.20;;;;;;;13.07;80.62;101024.13;4994122;28;20044;-73
2021/07/30 04:39:29;;;;;;;17.85;7.18;;;;;;;13.08;80.56;101031.16;4992900;28;20038;-74
2021/07/30 04:41:54;;;;;;;15.35;6.47;;;;;;;13.12;80.82;101026.34;4993878;28;20030;-74
2021/07/30 04:44:20;;;;;;;22.35;6.63;;;;;;;13.15;80.30;101015.38;4992778;28;20034;-74
2021/07/30 04:46:46;;;;;;;21.27;6.78;;;;;;;13.16;80.52;101017.06;4994121;28;20382;-74
2021/07/30 04:49:11;;;;;;;20.98;6.65;;;;;;;13.16;80.44;101012.53;4992676;28;20034;-74
2021/07/30 04:51:37;;;;;;;13.30;6.30;;;;;;;13.15;80.24;101013.56;4993607;28;20375;-74
2021/07/30 04:54:02;;;;;;;19.48;6.97;;;;;;;13.16;80.48;101003.69;4992479;28;20037;-74
2021/07/30 04:56:27;;;;;;;19.38;7.22;;;;;;;13.20;79.98;101008.59;4992791;28;20042;-74
2021/07/30 04:58:53;;;;;;;21.33;6.85;;;;;;;13.26;79.95;101009.81;4993397;28;20061;-74
2021/07/30 05:01:18;;;;;;;16.30;6.55;;;;;;;13.29;80.31;101006.84;4992677;28;20034;-74
2021/07/30 05:03:43;;;;;;;20.65;7.43;;;;;;;13.30;80.19;101000.50;4993056;28;20084;-74
2021/07/30 05:06:13;;;;;;;17.42;6.63;;;;;;;13.33;79.59;101015.38;4993297;28;20061;-74
2021/07/30 05:08:39;;;;;;;15.40;6.78;;;;;;;13.34;80.10;101009.06;4992920;28;20084;-74
2021/07/30 05:11:04;;;;;;;19.58;6.78;;;;;;;13.36;79.92;101010.59;4993144;28;20117;-73
2021/07/30 05:13:30;;;;;;;18.52;6.55;;;;;;;13.39;79.66;101012.97;4992471;28;20116;-73
2021/07/30 05:15:56;;;;;;;19.23;6.90;;;;;;;13.43;79.70;101002.81;4993033;28;20038;-73
2021/07/30 05:18:21;;;;;;;20.98;6.47;;;;;;;13.50;79.58;101008.38;4992256;28;20034;-74
2021/07/30 05:20:46;;;;;;;16.48;6.57;;;;;;;13.58;78.89;100997.75;4975256;28;20061;-73
2021/07/30 05:23:12;;;;;;;16.60;6.88;;;;;;;13.66;79.65;101004.97;4993027;28;20034;-73
2021/07/30 05:25:37;;;;;;;23.20;6.50;;;;;;;13.73;78.68;101001.56;4992519;28;20038;-73
2021/07/30 05:28:03;;;;;;;12.90;6.25;;;;;;;13.80;78.87;101001.75;4992884;28;20038;-73
2021/07/30 05:30:28;;;;;;;18.15;7.03;;;;;;;13.89;77.78;100994.63;4990921;28;20089;-73
2021/07/30 05:32:54;;;;;;;14.10;6.50;;;;;;;14.00;77.12;100996.19;4992698;28;20034;-73
2021/07/30 05:35:19;;;;;;;15.13;6.20;;;;;;;14.06;77.05;100993.75;4992280;28;20522;-74
2021/07/30 05:37:44;;;;;;;15.65;7.05;;;;;;;14.11;77.14;100995.94;4992846;28;20050;-73
2021/07/30 05:40:10;;;;;;;15.45;7.10;;;;;;;14.18;76.86;100993.47;4991508;28;20046;-73
2021/07/30 05:42:35;;;;;;;21.05;6.95;;;;;;;14.28;76.48;100988.84;4974534;28;20541;-73
2021/07/30 05:45:01;;;;;;;14.10;6.53;;;;;;;14.40;75.73;100990.22;4992638;28;20038;-73
2021/07/30 05:47:26;;;;;;;21.00;6.13;;;;;;;14.50;75.56;100984.75;4990385;28;20034;-73
2021/07/30 05:49:52;;;;;;;23.20;6.80;;;;;;;14.61;75.09;100986.34;4992944;28;20036;-73
2021/07/30 05:52:17;;;;;;;12.30;6.13;;;;;;;14.72;74.82;100986.03;4992524;28;20037;-74
2021/07/30 05:54:42;;;;;;;16.60;6.60;;;;;;;14.79;74.88;100987.06;4992084;28;20042;-74
2021/07/30 05:57:08;;;;;;;19.83;6.45;;;;;;;14.88;73.74;100979.03;4992692;28;20035;-74
2021/07/30 05:59:33;;;;;;;20.65;6.90;;;;;;;14.94;74.45;100984.59;4992088;28;20100;-75
2021/07/30 06:01:58;;;;;;;19.42;6.60;;;;;;;15.03;73.85;100992.63;4992451;28;20045;-73
2021/07/30 06:04:24;;;;;;;20.25;6.50;;;;;;;15.09;74.35;100990.16;4992369;28;20030;-73
2021/07/30 06:06:49;;;;;;;22.48;6.68;;;;;;;15.22;73.05;100978.94;4996363;28;20405;-73
2021/07/30 06:09:15;;;;;;;15.23;6.35;;;;;;;15.35;73.23;100986.50;4996246;28;20479;-74
2021/07/30 06:11:40;;;;;;;14.85;5.97;;;;;;;15.50;72.53;100975.94;4994362;28;20108;-73
2021/07/30 06:14:05;;;;;;;16.33;5.85;;;;;;;15.57;72.52;100978.78;4996032;28;20042;-74
2021/07/30 06:16:31;;;;;;;15.50;6.57;;;;;;;15.62;72.90;100976.44;4995751;28;20037;-74
2021/07/30 06:18:56;;;;;;;17.35;6.00;;;;;;;15.67;72.35;100977.59;4995929;28;20085;-74
2021/07/30 06:21:21;;;;;;;14.57;6.10;;;;;;;15.71;71.10;100975.41;4996171;28;20121;-74
2021/07/30 06:23:47;;;;;;;15.45;5.93;;;;;;;15.80;70.27;100977.09;4993545;28;20108;-74
2021/07/30 06:26:13;;;;;;;17.17;5.80;;;;;;;15.87;69.39;100969.22;4993082;28;20096;-74
2021/07/30 06:28:38;;;;;;;10.07;5.25;;;;;;;15.98;69.59;100976.06;4992638;28;20116;-72
2021/07/30 06:31:04;;;;;;;16.23;5.78;;;;;;;16.01;68.97;100971.19;4993217;28;20101;-71
2021/07/30 06:33:29;;;;;;;12.52;5.70;;;;;;;16.10;69.64;100980.06;4992458;28;20084;-72
2021/07/30 06:35:55;;;;;;;15.27;5.43;;;;;;;16.16;68.02;100970.50;4992831;28;20034;-71
2021/07/30 06:38:21;;;;;;;13.88;5.53;;;;;;;16.29;66.56;100968.09;4993208;28;20052;-71
2021/07/30 06:40:47;;;;;;;15.13;6.00;;;;;;;16.36;68.02;100965.53;4990977;28;20030;-73
2021/07/30 06:43:13;;;;;;;15.98;5.40;;;;;;;16.39;66.68;100955.31;4992952;28;20085;-73
2021/07/30 06:45:39;;;;;;;16.10;5.50;;;;;;;16.48;68.83;100964.16;4992183;28;20355;-72
2021/07/30 06:48:04;;;;;;;12.35;5.43;;;;;;;16.56;68.85;100958.75;4992582;28;20114;-73
2021/07/30 06:50:30;;;;;;;13.65;5.20;;;;;;;16.66;66.75;100957.69;4992439;28;20045;-75
2021/07/30 06:52:55;;;;;;;13.57;5.53;;;;;;;16.74;67.60;100958.47;4993014;28;20475;-74
2021/07/30 06:55:20;;;;;;;13.23;5.18;;;;;;;16.95;67.14;100951.66;4992656;28;20038;-74
2021/07/30 06:57:46;;;;;;;13.48;5.10;;;;;;;17.14;65.70;100947.69;4992411;28;20038;-74
2021/07/30 07:00:13;;;;;;;15.35;4.90;;;;;;;17.35;63.92;100947.00;4992374;28;20030;-74
2021/07/30 07:02:38;;;;;;;16.25;5.65;;;;;;;17.48;65.06;100945.53;4991766;28;20399;-74
2021/07/30 07:05:04;;;;;;;14.25;4.68;;;;;;;17.55;64.11;100941.09;4992551;28;20046;-74
2021/07/30 07:07:30;;;;;;;11.00;4.70;;;;;;;17.57;62.58;100931.00;4992020;28;20035;-76
2021/07/30 07:09:55;;;;;;;15.30;4.80;;;;;;;17.54;62.83;100934.91;4992888;28;20037;-74
2021/07/30 07:12:20;;;;;;;13.43;4.40;;;;;;;17.60;62.04;100936.84;4992167;28;20043;-74
2021/07/30 07:14:46;;;;;;;9.00;4.63;;;;;;;17.61;61.58;100938.50;4991757;28;20034;-74
2021/07/30 07:17:11;;;;;;;18.63;4.68;;;;;;;17.62;63.72;100932.13;4991435;28;20092;-74
2021/07/30 07:19:36;;;;;;;8.27;4.05;;;;;;;17.71;63.53;100926.66;4991537;28;20044;-74
2021/07/30 07:22:02;;;;;;;13.57;4.90;;;;;;;17.82;63.26;100920.00;4990890;28;20089;-73
2021/07/30 07:24:27;;;;;;;13.13;4.65;;;;;;;17.91;61.53;100916.22;4991914;28;20527;-72
2021/07/30 07:26:53;;;;;;;17.92;4.90;;;;;;;17.95;60.77;100906.75;4991949;28;20034;-72
2021/07/30 07:29:18;;;;;;;15.15;4.00;;;;;;;17.96;59.39;100908.44;4991897;28;20125;-73
2021/07/30 07:31:46;;;;;;;10.52;4.40;;;;;;;18.08;62.23;100916.88;4991475;28;20046;-73
2021/07/30 07:34:12;;;;;;;11.85;4.85;;;;;;;18.18;60.36;100903.94;4992363;28;20030;-73
2021/07/30 07:36:37;;;;;;;14.05;4.85;;;;;;;18.24;59.86;100896.97;4991286;28;20040;-75
2021/07/30 07:39:03;;;;;;;14.35;4.65;;;;;;;18.35;58.94;100899.19;4990647;28;20031;-72
2021/07/30 07:41:30;;;;;;;16.23;4.90;;;;;;;18.44;58.81;100898.06;4992432;28;20034;-73
2021/07/30 07:43:55;;;;;;;18.90;4.78;;;;;;;18.53;59.08;100889.88;4990057;28;20069;-74
2021/07/30 07:46:21;;;;;;;11.77;5.03;;;;;;;18.66;59.09;100887.28;4991820;28;20101;-74
2021/07/30 07:48:46;;;;;;;14.10;4.50;;;;;;;18.78;59.43;100891.16;4990908;28;20096;-73
2021/07/30 07:51:11;;;;;;;11.55;4.65;;;;;;;18.94;58.71;100891.97;4992735;28;20463;-75
2021/07/30 07:53:37;;;;;;;13.85;4.63;;;;;;;19.06;58.04;100878.78;4991457;28;20038;-75
2021/07/30 07:56:04;;;;;;;16.77;5.22;;;;;;;19.08;57.32;100880.28;4992169;28;20042;-74
2021/07/30 07:58:30;;;;;;;14.85;4.95;;;;;;;19.09;57.69;100878.41;4992004;28;20038;-75
2021/07/30 08:00:56;;;;;;;10.55;3.95;;;;;;;19.15;58.88;100883.88;4991286;28;20069;-74
2021/07/30 08:03:21;;;;;;;14.95;4.53;;;;;;;19.02;57.88;100879.19;4992065;28;20467;-75
2021/07/30 08:05:47;;;;;;;14.95;4.75;;;;;;;19.06;59.05;100884.19;4991175;28;20045;-75
2021/07/30 08:08:12;;;;;;;10.63;4.22;;;;;;;18.98;57.62;100887.84;4992023;28;20048;-74
2021/07/30 08:10:37;;;;;;;11.70;4.57;;;;;;;19.02;58.34;100881.88;4991593;28;20034;-76
2021/07/30 08:13:03;;;;;;;14.15;4.22;;;;;;;19.24;55.40;100873.75;4990860;28;20537;-75
2021/07/30 08:15:28;;;;;;;7.57;3.97;;;;;;;19.34;57.27;100876.94;4991192;28;20037;-74
2021/07/30 08:17:53;;;;;;;12.23;4.22;;;;;;;19.59;56.70;100876.50;4990688;28;20046;-75
2021/07/30 08:20:19;;;;;;;10.82;3.72;;;;;;;19.80;54.45;100877.50;4990030;28;20100;-75
2021/07/30 08:22:44;;;;;;;11.50;4.63;;;;;;;19.93;56.96;100874.00;4990838;28;20053;-77
2021/07/30 08:25:13;;;;;;;12.23;3.95;;;;;;;19.99;55.28;100868.66;4990905;28;20042;-75
2021/07/30 08:27:39;;;;;;;9.05;3.85;;;;;;;19.92;55.23;100866.97;4989257;28;20041;-75
2021/07/30 08:30:05;;;;;;;11.13;3.92;;;;;;;19.98;56.65;100871.56;4990243;28;20113;-75
2021/07/30 08:32:30;;;;;;;10.93;3.90;;;;;;;20.13;55.41;100866.03;4990937;28;20169;-79
2021/07/30 08:34:56;;;;;;;13.32;4.30;;;;;;;20.35;55.75;100856.75;4990502;28;20093;-77
2021/07/30 08:37:21;;;;;;;11.00;3.85;;;;;;;20.47;54.73;100864.25;4990601;28;20223;-77
2021/07/30 08:39:46;;;;;;;9.60;3.80;;;;;;;20.55;54.36;100855.97;4990242;28;20042;-74
2021/07/30 08:42:14;;;;;;;11.23;3.83;;;;;;;20.54;54.95;100854.28;4990835;28;20037;-79
2021/07/30 08:44:39;;;;;;;12.70;3.70;;;;;;;20.67;53.97;100858.94;4990655;28;20037;-75
2021/07/30 08:47:05;;;;;;;7.88;3.35;;;;;;;20.65;52.86;100845.59;4989805;28;20062;-74
2021/07/30 08:49:33;;;;;;;12.10;3.22;;;;;;;20.48;53.45;100842.44;4990258;28;20103;-76
2021/07/30 08:52:10;;;;;;;9.80;3.42;;;;;;;20.33;54.66;100841.78;4989978;28;20034;-76
2021/07/30 08:54:36;;;;;;;8.88;3.28;;;;;;;20.23;56.39;100840.28;4989408;28;20041;-77
2021/07/30 08:57:09;;;;;;;12.68;3.28;;;;;;;20.17;56.38;100840.25;4989998;28;20069;-74
2021/07/30 08:59:39;;;;;;;9.55;3.28;;;;;;;20.20;55.58;100829.06;4990739;28;20045;-74
2021/07/30 09:02:06;;;;;;;9.32;3.47;;;;;;;20.26;55.58;100822.84;4988207;28;20607;-77
2021/07/30 09:04:32;;;;;;;9.32;3.28;;;;;;;20.42;53.53;100827.88;4990630;28;20042;-73
2021/07/30 09:06:59;;;;;;;7.93;3.20;;;;;;;20.43;54.18;100816.00;4990093;28;20037;-77
2021/07/30 09:09:25;;;;;;;9.95;3.30;;;;;;;20.48;53.68;100822.69;4990113;28;20068;-77
2021/07/30 09:11:55;;;;;;;6.00;3.03;;;;;;;20.40;53.49;100816.44;4989409;28;20046;-72
2021/07/30 09:14:50;;;;;;;10.18;3.60;;;;;;;20.33;53.32;100812.91;4990301;28;20062;-72
2021/07/30 09:17:15;;;;;;;6.53;2.83;;;;;;;20.40;55.35;100821.00;4989297;28;20058;-69
2021/07/30 09:20:02;;;;;;;11.18;3.20;;;;;;;20.54;54.97;100811.91;4990004;28;20076;-70
2021/07/30 09:22:28;;;;;;;6.80;2.83;;;;;;;20.59;54.83;100812.09;4990101;28;20030;-72
2021/07/30 09:24:58;;;;;;;10.35;3.22;;;;;;;20.61;52.93;100807.31;4989320;28;20093;-75
2021/07/30 09:27:23;;;;;;;7.17;2.97;;;;;;;20.66;54.68;100811.31;4990186;28;20045;-71
2021/07/30 09:29:49;;;;;;;7.15;3.25;;;;;;;20.66;54.37;100801.34;4989751;28;20269;-72
2021/07/30 09:32:17;;;;;;;8.85;2.90;;;;;;;20.85;54.47;100804.25;4988990;28;20050;-72
2021/07/30 09:34:51;;;;;;;7.93;3.10;;;;;;;21.02;53.60;100797.38;4989948;28;20044;-72
2021/07/30 09:37:22;;;;;;;6.63;2.85;;;;;;;20.99;53.68;100800.50;4989818;28;20114;-71
2021/07/30 09:39:50;;;;;;;13.52;3.17;;;;;;;20.90;52.07;100791.78;4988463;28;20034;-70
2021/07/30 09:42:17;;;;;;;9.68;3.15;;;;;;;21.06;51.68;100784.25;4993086;28;20045;-71
2021/07/30 09:44:48;;;;;;;10.10;3.30;;;;;;;21.49;52.61;100791.88;4992189;28;20391;-70
2021/07/30 09:47:13;;;;;;;9.93;3.35;;;;;;;22.09;49.75;100790.84;4992527;28;20049;-70
2021/07/30 09:49:40;;;;;;;9.05;3.47;;;;;;;22.76;47.89;100780.41;4992643;28;20038;-71
2021/07/30 09:52:11;;;;;;;10.52;3.00;;;;;;;23.41;47.00;100790.88;4992794;28;20033;-72
2021/07/30 09:54:40;;;;;;;;;;;;;;;24.47;45.54;100785.13;4993743;28;20062;-71
2021/07/30 09:57:06;;;;;;;8.95;2.95;;;;;;;25.45;43.64;100783.91;4992837;28;19914;-71
2021/07/30 09:59:36;;;;;;;11.40;3.42;;;;;;;25.01;42.48;100776.13;4992433;28;20391;-69
2021/07/30 10:02:05;;;;;;;5.55;2.90;;;;;;;24.43;44.61;100777.69;4991983;28;20038;-71
2021/07/30 10:04:32;;;;;;;7.03;3.08;;;;;;;23.88;46.71;100781.38;4993448;28;20126;-69
2021/07/30 10:07:00;;;;;;;7.60;2.95;;;;;;;23.42;46.98;100778.13;4992544;28;20034;-69
2021/07/30 10:09:26;;;;;;;18.02;3.90;;;;;;;23.16;47.67;100773.81;4990527;28;20034;-66
2021/07/30 10:11:52;;;;;;;8.27;3.22;;;;;;;23.18;46.64;100775.25;4992807;28;20033;-67
2021/07/30 10:14:25;;;;;;;9.50;3.55;;;;;;;23.14;46.89;100767.78;4992784;28;20034;-70
2021/07/30 10:17:01;;;;;;;13.80;3.28;;;;;;;22.92;48.25;100768.16;4993337;28;20046;-73
2021/07/30 10:19:30;;;;;;;5.35;2.97;;;;;;;22.98;48.40;100758.31;4993777;28;20038;-74
2021/07/30 10:22:02;;;;;;;7.95;3.28;;;;;;;22.82;48.89;100755.09;4992217;28;20054;-72
2021/07/30 10:24:30;;;;;;;5.57;3.00;;;;;;;22.38;48.68;100767.78;4993400;28;20037;-72
2021/07/30 10:27:01;;;;;;;6.50;2.97;;;;;;;21.78;49.97;100755.38;4992425;28;20038;-80
2021/07/30 10:29:26;;;;;;;7.43;2.67;;;;;;;21.30;51.97;100755.69;4992962;28;20060;-85
2021/07/30 10:31:52;;;;;;;6.22;2.33;;;;;;;21.06;51.31;100751.81;4993295;28;20088;-74
2021/07/30 10:34:38;;;;;;;6.32;2.83;;;;;;;20.94;53.83;100757.88;4992642;28;20034;-77
2021/07/30 10:37:04;;;;;;;7.25;2.90;;;;;;;20.87;53.48;100753.50;4989766;28;20060;-79
2021/07/30 10:39:29;;;;;;;7.00;3.15;;;;;;;20.76;53.61;100758.47;4992527;28;20112;-79
2021/07/30 10:42:12;;;;;;;7.07;3.15;;;;;;;20.68;55.01;100757.88;4991711;28;20038;-80
2021/07/30 10:45:28;;;;;;;6.30;3.00;;;;;;;20.48;55.42;100755.97;4992232;28;20042;-85
2021/07/30 10:48:11;;;;;;;4.47;2.95;;;;;;;20.27;55.04;100751.56;4969751;28;20152;-88
2021/07/30 10:51:02;;;;;;;7.10;3.22;;;;;;;20.09;53.49;100760.25;4992779;28;20439;-74
2021/07/30 10:53:30;;;;;;;5.35;3.00;;;;;;;19.94;55.40;100752.31;4992961;28;20482;-75
2021/07/30 10:55:59;;;;;;;4.80;3.00;;;;;;;20.02;55.08;100745.88;4992074;28;20387;-76
2021/07/30 10:58:40;;;;;;;13.75;3.30;;;;;;;20.24;54.49;100751.97;4991643;28;20050;-75
2021/07/30 11:01:06;;;;;;;7.07;3.20;;;;;;;20.43;54.63;100740.34;4992017;28;20033;-76
2021/07/30 11:03:52;;;;;;;6.85;3.10;;;;;;;20.52;54.30;100746.41;4993360;28;20482;-74
2021/07/30 11:06:21;;;;;;;10.90;3.60;;;;;;;20.47;54.22;100743.50;4992172;28;20030;-81
2021/07/30 11:08:59;;;;;;;10.13;3.50;;;;;;;20.32;56.09;100753.63;4992328;28;20062;-80
2021/07/30 11:11:53;;;;;;;11.30;3.67;;;;;;;20.05;56.30;100749.03;4991534;28;20038;-72
2021/07/30 11:14:21;;;;;;;6.07;3.40;;;;;;;19.90;55.99;100745.69;4991297;28;20150;-76
2021/07/30 11:16:57;;;;;;;7.50;3.55;;;;;;;19.79;56.50;100747.06;4991929;28;20050;-73
2021/07/30 11:19:28;;;;;;;9.93;3.83;;;;;;;19.67;58.41;100757.59;4990635;28;20202;-75
2021/07/30 11:21:56;;;;;;;9.00;3.53;;;;;;;19.55;58.69;100759.19;4992307;28;20047;-77